createdAt,value
2023-08-15T00:00:34.063Z,80.12
2023-08-15T00:04:13.343Z,80.18
2023-08-15T00:07:49.718Z,80.52
2023-08-15T00:11:27.037Z,80.82
2023-08-15T00:15:05.530Z,81.59
2023-08-15T00:18:43.676Z,81.84
2023-08-15T00:22:20.109Z,81.99
2023-08-15T00:25:58.053Z,81.92
2023-08-15T00:29:41.396Z,81.58
2023-08-15T00:33:31.973Z,81.47
2023-08-15T00:36:57.287Z,81.42
2023-08-15T00:40:40.676Z,81.68
2023-08-15T00:44:12.537Z,82.34
2023-08-15T00:47:50.804Z,82.18
2023-08-15T00:51:28.369Z,82.48
2023-08-15T00:55:09.382Z,81.78
2023-08-15T00:58:43.539Z,81.67
2023-08-15T01:02:21.083Z,81.91
2023-08-15T01:05:58.674Z,82.07
2023-08-15T01:09:38.465Z,82.39
2023-08-15T01:13:37.625Z,83.46
2023-08-15T01:17:06.552Z,83.09
2023-08-15T01:20:44.711Z,83.29
2023-08-15T01:24:21.728Z,83.59
2023-08-15T01:27:57.736Z,85.18
2023-08-15T01:31:41.367Z,86.08
2023-08-15T01:35:25.821Z,85.48
2023-08-15T01:39:05.066Z,85.30
2023-08-15T01:42:34.254Z,85.00
2023-08-15T01:46:09.879Z,85.40
2023-08-15T01:49:47.275Z,85.41
2023-08-15T01:53:24.950Z,86.14
2023-08-15T01:57:02.730Z,86.36
2023-08-15T02:00:48.166Z,86.14
2023-08-15T02:04:21.038Z,85.72
2023-08-15T02:07:55.884Z,85.49
2023-08-15T02:11:33.578Z,85.65
2023-08-15T02:15:11.125Z,85.68
2023-08-15T02:18:49.202Z,85.64
2023-08-15T02:22:26.181Z,85.15
2023-08-15T02:26:04.212Z,85.42
2023-08-15T02:29:41.717Z,85.45
2023-08-15T02:33:19.823Z,85.57
2023-08-15T02:36:57.130Z,85.62
2023-08-15T02:40:35.139Z,85.99
2023-08-15T02:44:14.086Z,86.12
2023-08-15T02:47:51.376Z,86.48
2023-08-15T02:51:29.755Z,85.96
2023-08-15T02:55:06.634Z,85.81
2023-08-15T02:58:43.210Z,86.09
2023-08-15T03:02:20.832Z,86.67
2023-08-15T03:06:02.530Z,86.98
2023-08-15T03:09:36.066Z,87.09
2023-08-15T03:13:13.860Z,87.24
2023-08-15T03:16:51.541Z,86.77
2023-08-15T03:20:30.836Z,86.57
2023-08-15T03:24:07.864Z,86.88
2023-08-15T03:27:44.467Z,87.24
2023-08-15T03:31:22.517Z,87.36
2023-08-15T03:35:21.590Z,87.13
2023-08-15T03:38:47.847Z,86.98
2023-08-15T03:42:27.076Z,87.03
2023-08-15T03:46:04.753Z,87.14
2023-08-15T03:49:40.934Z,87.32
2023-08-15T03:53:37.299Z,87.99
2023-08-15T03:57:02.794Z,88.14
2023-08-15T04:00:40.637Z,87.97
2023-08-15T04:04:18.109Z,88.06
2023-08-15T04:07:56.069Z,88.54
2023-08-15T04:11:36.406Z,88.43
2023-08-15T04:15:11.874Z,88.52
2023-08-15T04:18:48.861Z,88.67
2023-08-15T04:22:26.690Z,88.63
2023-08-15T04:26:04.504Z,88.49
2023-08-15T04:29:41.817Z,89.27
2023-08-15T04:33:38.396Z,89.53
2023-08-15T04:37:03.057Z,89.71
2023-08-15T04:40:44.973Z,89.45
2023-08-15T04:44:18.418Z,89.16
2023-08-15T04:47:56.323Z,88.93
2023-08-15T04:51:33.817Z,89.00
2023-08-15T04:55:30.388Z,89.21
2023-08-15T04:58:55.186Z,89.08
2023-08-15T05:02:32.843Z,88.88
2023-08-15T05:06:12.419Z,88.47
2023-08-15T05:09:48.658Z,88.23
2023-08-15T05:13:26.010Z,88.19
2023-08-15T05:17:03.932Z,88.26
2023-08-15T05:21:00.232Z,88.79
2023-08-15T05:24:26.461Z,88.66
2023-08-15T05:28:22.785Z,88.30
2023-08-15T05:31:48.316Z,88.03
2023-08-15T05:35:27.212Z,87.81
2023-08-15T05:39:22.802Z,87.87
2023-08-15T05:43:09.194Z,88.30
2023-08-15T05:46:55.010Z,88.37
2023-08-15T05:50:40.762Z,88.56
2023-08-15T05:54:08.793Z,88.20
2023-08-15T05:57:45.235Z,87.70
2023-08-15T06:01:24.052Z,87.36
2023-08-15T06:05:00.657Z,87.20
2023-08-15T06:08:38.328Z,87.13
2023-08-15T06:12:15.967Z,87.07
2023-08-15T06:15:53.748Z,86.54
2023-08-15T06:19:31.501Z,86.13
2023-08-15T06:23:09.032Z,85.94
2023-08-15T06:26:46.737Z,85.71
2023-08-15T06:30:24.514Z,85.55
2023-08-15T06:34:06.246Z,84.80
2023-08-15T06:37:39.839Z,84.31
2023-08-15T06:41:18.061Z,83.75
2023-08-15T06:45:12.533Z,83.40
2023-08-15T06:48:58.003Z,82.85
2023-08-15T06:52:24.549Z,82.33
2023-08-15T06:56:02.715Z,81.95
2023-08-15T06:59:58.217Z,80.86
2023-08-15T07:03:26.222Z,80.29
2023-08-15T07:07:23.558Z,79.97
2023-08-15T07:11:09.142Z,79.67
2023-08-15T07:14:53.511Z,78.96
2023-08-15T07:18:20.779Z,78.57
2023-08-15T07:21:56.693Z,78.07
2023-08-15T07:25:34.165Z,77.12
2023-08-15T07:29:12.868Z,77.32
2023-08-15T07:32:49.746Z,77.16
2023-08-15T07:36:27.283Z,77.31
2023-08-15T07:40:11.076Z,75.95
2023-08-15T07:43:42.571Z,75.39
2023-08-15T07:47:23.690Z,74.04
2023-08-15T07:50:58.187Z,73.84
2023-08-15T07:54:37.542Z,73.63
2023-08-15T07:58:13.796Z,73.51
2023-08-15T08:01:53.533Z,72.54
2023-08-15T08:05:32.847Z,71.43
2023-08-15T08:09:07.386Z,69.79
2023-08-15T08:13:05.035Z,68.98
2023-08-15T08:16:32.799Z,68.29
2023-08-15T08:20:14.018Z,65.63
2023-08-15T08:23:45.384Z,65.33
2023-08-15T08:27:45.955Z,64.63
2023-08-15T08:31:11.192Z,63.90
2023-08-15T08:34:49.006Z,64.10
2023-08-15T08:38:28.556Z,61.49
2023-08-15T08:42:04.970Z,60.12
2023-08-15T08:45:49.400Z,61.07
2023-08-15T08:49:21.848Z,60.64
2023-08-15T08:52:57.603Z,60.77
2023-08-15T08:56:35.314Z,60.94
2023-08-15T09:00:16.081Z,60.28
2023-08-15T09:03:50.490Z,60.01
2023-08-15T09:07:28.020Z,60.01
2023-08-15T09:11:06.350Z,59.13
2023-08-15T09:14:43.430Z,58.98
2023-08-15T09:18:25.729Z,58.60
2023-08-15T09:21:59.196Z,58.27
2023-08-15T09:25:56.418Z,57.41
2023-08-15T09:29:23.038Z,57.68
2023-08-15T09:33:02.255Z,57.58
2023-08-15T09:36:36.590Z,57.24
2023-08-15T09:40:26.828Z,57.16
2023-08-15T09:43:54.974Z,56.51
2023-08-15T09:47:31.078Z,55.52
2023-08-15T09:51:28.259Z,53.38
2023-08-15T09:54:53.108Z,53.85
2023-08-15T09:58:30.864Z,53.34
2023-08-15T10:02:23.645Z,52.67
2023-08-15T10:05:56.129Z,52.92
2023-08-15T10:09:30.815Z,52.25
2023-08-15T10:13:08.936Z,50.66
2023-08-15T10:16:43.988Z,50.07
2023-08-15T10:20:43.414Z,49.05
2023-08-15T10:24:10.032Z,48.58
2023-08-15T10:27:55.317Z,47.52
2023-08-15T10:31:37.368Z,48.34
2023-08-15T10:35:32.110Z,47.46
2023-08-15T10:39:18.526Z,46.46
2023-08-15T10:43:06.056Z,45.20
2023-08-15T10:46:51.993Z,45.39
2023-08-15T10:50:17.408Z,43.60
2023-08-15T10:54:15.756Z,43.66
2023-08-15T10:57:42.412Z,43.97
2023-08-15T11:01:21.298Z,44.93
2023-08-15T11:04:57.406Z,45.03
2023-08-15T11:08:56.127Z,45.44
2023-08-15T11:12:21.007Z,44.38
2023-08-15T11:16:00.100Z,43.18
2023-08-15T11:19:36.439Z,43.09
2023-08-15T11:23:13.901Z,42.98
2023-08-15T11:26:52.244Z,40.94
2023-08-15T11:30:30.083Z,40.61
2023-08-15T11:34:07.802Z,42.15
2023-08-15T11:37:44.993Z,39.74
2023-08-15T11:41:22.959Z,40.55
2023-08-15T11:45:10.511Z,41.56
2023-08-15T11:48:37.932Z,41.30
2023-08-15T11:52:18.349Z,41.04
2023-08-15T11:56:12.167Z,40.38
2023-08-15T11:59:55.844Z,39.57
2023-08-15T12:03:20.894Z,40.27
2023-08-15T12:06:59.165Z,40.00
2023-08-15T12:10:36.332Z,40.83
2023-08-15T12:14:21.508Z,40.19
2023-08-15T12:17:52.090Z,40.87
2023-08-15T12:21:28.991Z,39.05
2023-08-15T12:25:09.110Z,39.14
2023-08-15T12:28:45.477Z,39.99
2023-08-15T12:32:22.940Z,39.31
2023-08-15T12:35:59.823Z,38.84
2023-08-15T12:39:37.520Z,39.14
2023-08-15T12:43:15.139Z,38.43
2023-08-15T12:46:52.973Z,39.70
2023-08-15T12:50:49.751Z,38.90
2023-08-15T12:54:34.638Z,39.44
2023-08-15T12:58:01.290Z,38.17
2023-08-15T13:01:41.309Z,37.88
2023-08-15T13:05:33.748Z,35.67
2023-08-15T13:08:58.652Z,36.09
2023-08-15T13:12:55.704Z,35.57
2023-08-15T13:16:20.436Z,35.81
2023-08-15T13:19:58.061Z,36.55
2023-08-15T13:23:35.750Z,35.38
2023-08-15T13:27:32.131Z,35.07
2023-08-15T13:30:58.573Z,34.71
2023-08-15T13:34:34.972Z,35.88
2023-08-15T13:38:14.198Z,35.90
2023-08-15T13:41:50.574Z,35.86
2023-08-15T13:45:28.190Z,35.45
2023-08-15T13:49:06.425Z,35.42
2023-08-15T13:52:43.367Z,35.00
2023-08-15T13:56:21.012Z,35.07
2023-08-15T13:59:58.819Z,35.48
2023-08-15T14:03:39.716Z,35.06
2023-08-15T14:07:14.171Z,34.71
2023-08-15T14:10:52.190Z,35.43
2023-08-15T14:14:29.527Z,35.16
2023-08-15T14:18:08.424Z,34.42
2023-08-15T14:21:45.167Z,34.47
2023-08-15T14:25:22.582Z,34.57
2023-08-15T14:29:00.193Z,34.41
2023-08-15T14:32:38.039Z,34.13
2023-08-15T14:36:15.494Z,33.71
2023-08-15T14:40:12.206Z,33.48
2023-08-15T14:43:55.839Z,33.02
2023-08-15T14:47:29.449Z,33.89
2023-08-15T14:51:17.122Z,33.46
2023-08-15T14:54:42.016Z,33.82
2023-08-15T14:58:19.856Z,33.91
2023-08-15T15:01:59.100Z,33.12
2023-08-15T15:05:35.098Z,33.36
2023-08-15T15:09:12.933Z,33.76
2023-08-15T15:12:50.580Z,33.79
2023-08-15T15:16:28.330Z,33.53
2023-08-15T15:20:07.973Z,33.35
2023-08-15T15:24:05.536Z,33.56
2023-08-15T15:27:31.347Z,33.61
2023-08-15T15:31:09.207Z,33.30
2023-08-15T15:34:47.234Z,33.54
2023-08-15T15:38:24.452Z,34.22
2023-08-15T15:42:02.288Z,34.70
2023-08-15T15:45:40.396Z,34.65
2023-08-15T15:49:18.568Z,34.99
2023-08-15T15:52:55.451Z,35.65
2023-08-15T15:56:51.774Z,35.37
2023-08-15T16:00:22.447Z,35.91
2023-08-15T16:03:54.958Z,36.36
2023-08-15T16:07:32.655Z,36.34
2023-08-15T16:11:10.730Z,36.57
2023-08-15T16:14:47.197Z,36.86
2023-08-15T16:18:25.503Z,36.91
2023-08-15T16:22:06.578Z,37.08
2023-08-15T16:25:40.330Z,37.46
2023-08-15T16:29:17.904Z,37.51
2023-08-15T16:33:15.090Z,37.66
2023-08-15T16:36:41.231Z,37.65
2023-08-15T16:40:19.006Z,37.95
2023-08-15T16:43:57.612Z,38.73
2023-08-15T16:47:37.634Z,41.51
2023-08-15T16:51:12.019Z,42.83
2023-08-15T16:55:08.885Z,44.51
2023-08-15T16:58:33.953Z,46.10
2023-08-15T17:02:30.542Z,47.15
2023-08-15T17:06:02.268Z,47.75
2023-08-15T17:09:35.680Z,48.51
2023-08-15T17:13:12.364Z,49.54
2023-08-15T17:16:48.998Z,50.09
2023-08-15T17:20:27.296Z,51.55
2023-08-15T17:24:05.000Z,51.86
2023-08-15T17:27:41.879Z,53.89
2023-08-15T17:31:20.293Z,54.17
2023-08-15T17:34:57.334Z,54.38
2023-08-15T17:38:36.708Z,57.73
2023-08-15T17:42:12.810Z,56.54
2023-08-15T17:45:51.189Z,57.07
2023-08-15T17:49:28.200Z,58.70
2023-08-15T17:53:05.989Z,58.75
2023-08-15T17:56:43.506Z,60.96
2023-08-15T18:00:21.486Z,60.50
2023-08-15T18:04:05.272Z,64.27
2023-08-15T18:07:36.842Z,63.88
2023-08-15T18:11:17.435Z,62.53
2023-08-15T18:14:51.919Z,63.11
2023-08-15T18:18:33.644Z,63.55
2023-08-15T18:22:09.078Z,63.55
2023-08-15T18:25:44.848Z,63.20
2023-08-15T18:29:23.606Z,64.04
2023-08-15T18:33:03.497Z,65.74
2023-08-15T18:36:57.362Z,65.52
2023-08-15T18:40:23.634Z,66.63
2023-08-15T18:44:01.329Z,67.80
2023-08-15T18:47:38.507Z,67.92
2023-08-15T18:51:17.306Z,66.01
2023-08-15T18:54:53.184Z,67.11
2023-08-15T18:58:30.771Z,67.85
2023-08-15T19:02:09.544Z,69.62
2023-08-15T19:05:47.244Z,68.93
2023-08-15T19:09:23.929Z,68.05
2023-08-15T19:13:01.674Z,70.74
2023-08-15T19:16:39.190Z,72.90
2023-08-15T19:20:19.059Z,73.24
2023-08-15T19:23:55.563Z,71.07
2023-08-15T19:27:33.461Z,72.05
2023-08-15T19:31:12.744Z,73.53
2023-08-15T19:34:49.137Z,71.42
2023-08-15T19:38:25.150Z,71.06
2023-08-15T19:42:03.189Z,71.16
2023-08-15T19:45:40.670Z,71.40
2023-08-15T19:49:18.751Z,71.12
2023-08-15T19:52:56.180Z,73.62
2023-08-15T19:56:33.732Z,72.29
2023-08-15T20:00:11.838Z,71.88
2023-08-15T20:03:49.114Z,72.49
2023-08-15T20:07:26.830Z,74.53
2023-08-15T20:11:05.461Z,73.63
2023-08-15T20:14:43.212Z,73.20
2023-08-15T20:18:24.589Z,76.22
2023-08-15T20:21:59.443Z,74.44
2023-08-15T20:25:35.219Z,75.39
2023-08-15T20:29:12.834Z,74.41
2023-08-15T20:32:50.594Z,74.55
2023-08-15T20:36:28.296Z,74.54
2023-08-15T20:40:06.286Z,74.93
2023-08-15T20:44:02.496Z,75.23
2023-08-15T20:47:27.461Z,75.19
2023-08-15T20:51:05.174Z,74.86
2023-08-15T20:54:44.289Z,74.91
2023-08-15T20:58:20.353Z,74.84
2023-08-15T21:02:17.081Z,75.29
2023-08-15T21:06:01.008Z,75.79
2023-08-15T21:09:45.045Z,75.85
2023-08-15T21:13:11.190Z,76.29
2023-08-15T21:16:48.805Z,76.02
2023-08-15T21:20:28.396Z,76.28
2023-08-15T21:24:04.596Z,75.95
2023-08-15T21:28:00.618Z,76.40
2023-08-15T21:31:27.046Z,76.86
2023-08-15T21:35:02.932Z,77.23
2023-08-15T21:38:41.170Z,77.17
2023-08-15T21:42:41.322Z,77.63
2023-08-15T21:46:25.224Z,79.38
2023-08-15T21:49:53.514Z,78.25
2023-08-15T21:53:48.792Z,78.79
2023-08-15T21:57:15.319Z,80.56
2023-08-15T22:00:52.991Z,79.34
2023-08-15T22:04:30.846Z,79.39
2023-08-15T22:08:28.878Z,79.11
2023-08-15T22:11:54.289Z,79.11
2023-08-15T22:15:31.940Z,79.49
2023-08-15T22:19:09.650Z,79.36
2023-08-15T22:22:51.445Z,79.01
2023-08-15T22:26:25.047Z,78.70
2023-08-15T22:30:03.059Z,78.86
2023-08-15T22:33:41.009Z,78.54
2023-08-15T22:37:18.076Z,78.88
2023-08-15T22:40:55.674Z,79.24
2023-08-15T22:44:36.383Z,79.54
2023-08-15T22:48:11.149Z,80.72
2023-08-15T22:51:48.714Z,81.25
2023-08-15T22:55:45.191Z,81.90
2023-08-15T22:59:10.760Z,81.02
2023-08-15T23:02:48.347Z,81.24
2023-08-15T23:06:26.444Z,86.32
2023-08-15T23:10:04.438Z,84.41
2023-08-15T23:13:41.563Z,89.57
2023-08-15T23:17:18.919Z,85.72
2023-08-15T23:20:59.589Z,86.30
2023-08-15T23:24:34.322Z,87.73
2023-08-15T23:28:12.270Z,88.15
2023-08-15T23:31:49.601Z,87.97
2023-08-15T23:35:27.313Z,85.85
2023-08-15T23:39:25.438Z,86.02
2023-08-15T23:42:50.429Z,86.55
2023-08-15T23:46:28.731Z,88.23
2023-08-15T23:50:06.391Z,87.21
2023-08-15T23:53:43.331Z,86.49
2023-08-15T23:57:21.693Z,86.02
